Aérodrome :







RETROUVEZ-NOUS SUR...

 
LOGIN :

S'inscrire | Disclaimer

   EN    FR    IT 

 









Légende :    VFR   VFR Marginal   IFR   IFR Intensif   IFR Très Intensif
Visi : 
Plafond : 
>= 8 km
>= 3000ft
5 à 8 km
1000 à 3000 ft
1500m à 5 km
500 à 1000 ft
800 à 1500m
200 à 500 ft
< 800m
< 200 ft
Symboles :   Orages  Brouillard  Fortes neiges  Fortes précipitations  Vent > 20 kt






- Altitude de l'aérodrome : 56 ft
- Code IATA : MCP


SBMQ - Macapa Int.

DERNIER METAR :
  • 302000Z 08006KT 9999 FEW020 31/26 Q1006

METARs EXPIRÉS :
  • 301900Z 03007KT 9999 SCT023 FEW030TCU 31/26 Q1007
  • 301800Z 08007KT 9999 VCSH SCT023 FEW030TCU BKN100 32/25 Q1007

TAF TAF SBMQ
Valide du 30 à 18h jusqu'au 31 à 18h UTC


301430Z 3018/3118 02010KT 8000 TS BKN017 FEW030CB TN25/3108Z TX32/3118Z
PROB40 3018/3022 02015KT 4000 TSRA BKN012 FEW025CB
BECMG 3022/3024 35005KT NSW SCT017
BECMG 3101/3103 SCT012
BECMG 3106/3108 4000 BR BKN007
BECMG 3110/3112 02010KT 8000 NSW SCT017
BECMG 3116/3118 02010KT TS BKN017 FEW030CB RMK PGS



MET'MAP, la Météo Aéronautique d'un coup d'oeil ! - Copyright ORBIFLY Décembre 2007 - Disclaimer

ORBIFLY MET'MAP TEAM :

Programmation & Développement : Alexandra Zaïnal
Sur une idée originale de : Baudouin d'Aumeries
Assistance à la programmation : Marc-Olivier Méhu
Soutien technique & logistique : Manuel Goepfert

Contact : metmap@orbifly.com




SOURCES & CREDITS :

   NOAA